Time;durP1;ratioP1;P1;durP2;ratioP2;P2;SDS_P1;SDS_P2;PMS_P1;PMS_P2;Temp;Humidity;BMP_temperature;BMP_pressure;BME280_temperature;BME280_humidity;BME280_pressure;Samples;Min_cycle;Max_cycle;Signal;HPM_P1;HPM_P2
2023/06/03 00:01:59;;;;;;;0.50;0.50;;;;;;;;;;5055081;28;20042;-57
2023/06/03 00:04:29;;;;;;;0.77;0.47;;;;;;;;;;5052988;28;20055;-57
2023/06/03 00:06:55;;;;;;;0.60;0.45;;;;;;;;;;5056664;28;20076;-56
2023/06/03 00:09:21;;;;;;;0.40;0.40;;;;;;;;;;5057905;28;20090;-57
2023/06/03 00:11:47;;;;;;;0.30;0.30;;;;;;;;;;5052479;28;20049;-56
2023/06/03 00:14:13;;;;;;;0.75;0.38;;;;;;;;;;5054436;28;20044;-55
2023/06/03 00:16:39;;;;;;;0.20;0.20;;;;;;;;;;5054670;28;20047;-56
2023/06/03 00:19:05;;;;;;;0.73;0.40;;;;;;;;;;5057028;28;20045;-56
2023/06/03 00:21:33;;;;;;;0.47;0.40;;;;;;;;;;5054687;28;20084;-56
2023/06/03 00:23:59;;;;;;;0.55;0.43;;;;;;;;;;5053634;28;20128;-57
2023/06/03 00:26:25;;;;;;;0.30;0.30;;;;;;;;;;5058754;28;20119;-56
2023/06/03 00:28:51;;;;;;;2.45;0.57;;;;;;;;;;5054737;28;20053;-56
2023/06/03 00:31:17;;;;;;;0.47;0.30;;;;;;;;;;5052202;28;20056;-56
2023/06/03 00:33:44;;;;;;;0.43;0.15;;;;;;;;;;5054080;28;20044;-57
2023/06/03 00:36:10;;;;;;;0.20;0.20;;;;;;;;;;5053393;28;20384;-57
2023/06/03 00:38:36;;;;;;;0.47;0.30;;;;;;;;;;5053716;28;20037;-57
2023/06/03 00:41:02;;;;;;;0.15;0.15;;;;;;;;;;5057234;28;20478;-56
2023/06/03 00:43:28;;;;;;;0.10;0.10;;;;;;;;;;5053489;28;20392;-57
2023/06/03 00:45:54;;;;;;;0.50;0.20;;;;;;;;;;5057597;28;20044;-55
2023/06/03 00:48:20;;;;;;;0.20;0.20;;;;;;;;;;5071323;28;20087;-57
2023/06/03 00:50:46;;;;;;;0.30;0.30;;;;;;;;;;5055234;28;20041;-56
2023/06/03 00:53:12;;;;;;;0.30;0.30;;;;;;;;;;5058501;28;20576;-57
2023/06/03 00:55:38;;;;;;;0.30;0.20;;;;;;;;;;5054856;28;20071;-56
2023/06/03 00:58:04;;;;;;;0.30;0.30;;;;;;;;;;5054766;28;20037;-56
2023/06/03 01:00:30;;;;;;;0.90;0.30;;;;;;;;;;5054890;28;20045;-57
2023/06/03 01:02:57;;;;;;;0.93;0.30;;;;;;;;;;5052878;28;20721;-56
2023/06/03 01:05:23;;;;;;;0.10;0.10;;;;;;;;;;5053965;28;20048;-57
2023/06/03 01:08:21;;;;;;;1.02;0.40;;;;;;;;;;5059664;28;20094;-56
2023/06/03 01:10:56;;;;;;;0.30;0.30;;;;;;;;;;5023618;28;20064;-57
2023/06/03 01:13:41;;;;;;;0.20;0.17;;;;;;;;;;5053319;28;20053;-56
2023/06/03 01:16:09;;;;;;;0.13;0.10;;;;;;;;;;5050207;28;20562;-56
2023/06/03 01:18:36;;;;;;;0.20;0.20;;;;;;;;;;5048647;28;20045;-56
2023/06/03 01:21:03;;;;;;;0.43;0.20;;;;;;;;;;5050420;28;20040;-56
2023/06/03 01:23:33;;;;;;;0.30;0.30;;;;;;;;;;5054193;28;20045;-56
2023/06/03 01:26:00;;;;;;;0.77;0.20;;;;;;;;;;5052025;28;20049;-56
2023/06/03 01:28:27;;;;;;;0.30;0.20;;;;;;;;;;5053533;28;20090;-57
2023/06/03 01:30:53;;;;;;;0.20;0.17;;;;;;;;;;5053212;28;20119;-56
2023/06/03 01:33:20;;;;;;;0.15;0.15;;;;;;;;;;5053742;28;20130;-57
2023/06/03 01:35:48;;;;;;;0.30;0.30;;;;;;;;;;5052592;28;20081;-55
2023/06/03 01:38:14;;;;;;;0.30;0.30;;;;;;;;;;5055257;28;20040;-56
2023/06/03 01:40:40;;;;;;;0.32;0.32;;;;;;;;;;5055984;28;20041;-56
2023/06/03 01:43:06;;;;;;;0.55;0.20;;;;;;;;;;5050272;28;20519;-56
2023/06/03 01:45:32;;;;;;;0.65;0.43;;;;;;;;;;5056882;28;20075;-56
2023/06/03 01:47:59;;;;;;;0.13;0.13;;;;;;;;;;5053040;28;20159;-57
2023/06/03 01:50:25;;;;;;;0.25;0.22;;;;;;;;;;5054379;28;20056;-56
2023/06/03 01:52:52;;;;;;;0.35;0.28;;;;;;;;;;5057864;28;20054;-57
2023/06/03 01:55:18;;;;;;;0.20;0.20;;;;;;;;;;5049948;28;20511;-57
2023/06/03 01:57:46;;;;;;;0.38;0.20;;;;;;;;;;5056399;28;20037;-56
2023/06/03 02:00:13;;;;;;;0.88;0.30;;;;;;;;;;5053234;28;20092;-56
2023/06/03 02:02:39;;;;;;;1.80;0.35;;;;;;;;;;5052580;28;20053;-56
2023/06/03 02:05:05;;;;;;;0.60;0.22;;;;;;;;;;5049993;28;20041;-56
2023/06/03 02:07:31;;;;;;;0.40;0.40;;;;;;;;;;5057972;28;20041;-57
2023/06/03 02:09:58;;;;;;;0.55;0.20;;;;;;;;;;5049164;28;20107;-56
2023/06/03 02:12:24;;;;;;;0.32;0.30;;;;;;;;;;5051632;28;20037;-57
2023/06/03 02:14:53;;;;;;;0.10;0.10;;;;;;;;;;5048761;28;20039;-57
2023/06/03 02:17:26;;;;;;;0.10;0.10;;;;;;;;;;5051770;28;20047;-56
2023/06/03 02:19:56;;;;;;;0.30;0.20;;;;;;;;;;5052250;28;20044;-56
2023/06/03 02:22:22;;;;;;;0.30;0.20;;;;;;;;;;5053477;28;20392;-57
2023/06/03 02:24:49;;;;;;;0.93;0.20;;;;;;;;;;5056708;28;20054;-57
2023/06/03 02:27:19;;;;;;;0.60;0.30;;;;;;;;;;5052106;28;20044;-56
2023/06/03 02:29:50;;;;;;;0.20;0.20;;;;;;;;;;5050288;28;20060;-56
2023/06/03 02:32:16;;;;;;;0.22;0.20;;;;;;;;;;5054142;28;20626;-56
2023/06/03 02:34:43;;;;;;;0.15;0.15;;;;;;;;;;5053259;28;20648;-56
2023/06/03 02:37:13;;;;;;;0.43;0.25;;;;;;;;;;5054686;28;20057;-56
2023/06/03 02:39:39;;;;;;;0.40;0.30;;;;;;;;;;5054639;28;20044;-56
2023/06/03 02:42:06;;;;;;;0.20;0.20;;;;;;;;;;5057092;28;20049;-56
2023/06/03 02:44:32;;;;;;;0.70;0.20;;;;;;;;;;5055597;28;20052;-56
2023/06/03 02:46:58;;;;;;;0.52;0.10;;;;;;;;;;5052542;28;20131;-56
2023/06/03 02:49:24;;;;;;;0.28;0.28;;;;;;;;;;5048285;28;20194;-56
2023/06/03 02:51:50;;;;;;;0.28;0.20;;;;;;;;;;5052237;28;20045;-56
2023/06/03 02:54:16;;;;;;;0.65;0.20;;;;;;;;;;5055380;28;20048;-56
2023/06/03 02:56:42;;;;;;;0.20;0.10;;;;;;;;;;5052402;28;20071;-57
2023/06/03 02:59:08;;;;;;;0.30;0.15;;;;;;;;;;5052418;28;20127;-56
2023/06/03 03:01:35;;;;;;;0.63;0.20;;;;;;;;;;5050637;28;20052;-56
2023/06/03 03:04:01;;;;;;;0.10;0.10;;;;;;;;;;5054365;28;20040;-57
2023/06/03 03:06:27;;;;;;;0.20;0.20;;;;;;;;;;5054390;28;20047;-57
2023/06/03 03:08:53;;;;;;;0.22;0.15;;;;;;;;;;5056551;28;20138;-56
2023/06/03 03:11:20;;;;;;;0.20;0.20;;;;;;;;;;5051449;28;20056;-55
2023/06/03 03:13:47;;;;;;;0.20;0.13;;;;;;;;;;5055957;28;20045;-57
2023/06/03 03:16:13;;;;;;;0.50;0.20;;;;;;;;;;5050925;28;20037;-56
2023/06/03 03:18:40;;;;;;;0.10;0.10;;;;;;;;;;5051231;28;20047;-56
2023/06/03 03:21:06;;;;;;;0.10;0.10;;;;;;;;;;5033675;28;20106;-56
2023/06/03 03:23:32;;;;;;;0.90;0.30;;;;;;;;;;5056073;28;20113;-57
2023/06/03 03:26:00;;;;;;;0.40;0.30;;;;;;;;;;5051060;28;20044;-56
2023/06/03 03:28:26;;;;;;;0.40;0.30;;;;;;;;;;5054234;28;20119;-56
2023/06/03 03:30:53;;;;;;;0.50;0.50;;;;;;;;;;5053320;28;20049;-56
2023/06/03 03:33:20;;;;;;;0.20;0.20;;;;;;;;;;5051552;28;20078;-57
2023/06/03 03:35:48;;;;;;;0.45;0.40;;;;;;;;;;5053809;28;20057;-57
2023/06/03 03:38:14;;;;;;;0.50;0.50;;;;;;;;;;5053997;28;20049;-56
2023/06/03 03:40:40;;;;;;;0.32;0.30;;;;;;;;;;5055281;28;20048;-56
2023/06/03 03:43:14;;;;;;;1.27;0.40;;;;;;;;;;5052982;28;20053;-55
2023/06/03 03:45:40;;;;;;;0.17;0.17;;;;;;;;;;5050412;28;20045;-55
2023/06/03 03:48:10;;;;;;;0.30;0.20;;;;;;;;;;5056128;28;20036;-56
2023/06/03 03:50:39;;;;;;;0.65;0.50;;;;;;;;;;5056239;28;20053;-56
2023/06/03 03:53:06;;;;;;;0.52;0.43;;;;;;;;;;5055811;28;20856;-56
2023/06/03 03:55:40;;;;;;;0.20;0.20;;;;;;;;;;5057851;28;20545;-56
2023/06/03 03:58:10;;;;;;;0.30;0.30;;;;;;;;;;5055996;28;20048;-57
2023/06/03 04:00:36;;;;;;;0.50;0.30;;;;;;;;;;5054025;28;20072;-56
2023/06/03 04:03:02;;;;;;;0.20;0.20;;;;;;;;;;5055262;28;20621;-56
2023/06/03 04:05:29;;;;;;;0.30;0.30;;;;;;;;;;5053779;28;20032;-57
2023/06/03 04:07:55;;;;;;;0.40;0.40;;;;;;;;;;5053142;28;20049;-56
2023/06/03 04:10:22;;;;;;;0.40;0.30;;;;;;;;;;5057288;28;20052;-56
2023/06/03 04:12:48;;;;;;;0.30;0.30;;;;;;;;;;5042985;28;20040;-56
2023/06/03 04:15:16;;;;;;;0.43;0.43;;;;;;;;;;5070821;28;20037;-56
2023/06/03 04:17:44;;;;;;;0.38;0.30;;;;;;;;;;5057965;28;20048;-56
2023/06/03 04:20:31;;;;;;;0.60;0.30;;;;;;;;;;5056207;28;20093;-56
2023/06/03 04:22:58;;;;;;;1.10;0.40;;;;;;;;;;5055060;28;20041;-57
2023/06/03 04:25:25;;;;;;;0.52;0.35;;;;;;;;;;5056449;28;20039;-57
2023/06/03 04:27:51;;;;;;;0.52;0.50;;;;;;;;;;5056837;28;20527;-56
2023/06/03 04:30:17;;;;;;;0.57;0.25;;;;;;;;;;5056542;28;20040;-56
2023/06/03 04:32:43;;;;;;;0.65;0.30;;;;;;;;;;5058459;28;20526;-56
2023/06/03 04:35:09;;;;;;;0.30;0.20;;;;;;;;;;5053952;28;20041;-57
2023/06/03 04:37:35;;;;;;;0.60;0.40;;;;;;;;;;5054258;28;20382;-56
2023/06/03 04:40:02;;;;;;;0.70;0.30;;;;;;;;;;5051775;28;20039;-56
2023/06/03 04:42:30;;;;;;;0.73;0.10;;;;;;;;;;5057973;28;20115;-57
2023/06/03 04:44:58;;;;;;;0.40;0.32;;;;;;;;;;5054021;28;20429;-56
2023/06/03 04:47:28;;;;;;;0.35;0.30;;;;;;;;;;5056298;28;20443;-56
2023/06/03 04:49:54;;;;;;;0.73;0.50;;;;;;;;;;5055887;28;20047;-56
2023/06/03 04:52:20;;;;;;;0.38;0.20;;;;;;;;;;5058068;28;20119;-56
2023/06/03 04:54:46;;;;;;;0.30;0.30;;;;;;;;;;5058454;28;20674;-56
2023/06/03 04:57:12;;;;;;;0.40;0.40;;;;;;;;;;5054731;28;20028;-55
2023/06/03 04:59:38;;;;;;;0.30;0.20;;;;;;;;;;5053293;28;20040;-57
2023/06/03 05:02:05;;;;;;;0.35;0.20;;;;;;;;;;5053107;28;20159;-56
2023/06/03 05:04:31;;;;;;;0.30;0.20;;;;;;;;;;5059014;28;20044;-56
2023/06/03 05:06:57;;;;;;;0.30;0.22;;;;;;;;;;5056926;28;20044;-56
2023/06/03 05:09:23;;;;;;;0.10;0.10;;;;;;;;;;5059598;28;20049;-56
2023/06/03 05:11:50;;;;;;;0.20;0.20;;;;;;;;;;5057751;28;20432;-56
2023/06/03 05:14:16;;;;;;;0.73;0.35;;;;;;;;;;5056166;28;20486;-55
2023/06/03 05:16:42;;;;;;;0.13;0.13;;;;;;;;;;5057363;28;20056;-55
2023/06/03 05:19:08;;;;;;;0.30;0.30;;;;;;;;;;5057064;28;20059;-56
2023/06/03 05:21:34;;;;;;;0.65;0.30;;;;;;;;;;5059604;28;20128;-56
2023/06/03 05:24:00;;;;;;;0.25;0.22;;;;;;;;;;5054622;28;20043;-56
2023/06/03 05:26:26;;;;;;;1.17;0.38;;;;;;;;;;5055073;28;20520;-56
2023/06/03 05:28:52;;;;;;;0.38;0.30;;;;;;;;;;5054780;28;20504;-56
2023/06/03 05:31:19;;;;;;;1.33;0.20;;;;;;;;;;5050368;28;20553;-56
2023/06/03 05:33:45;;;;;;;0.10;0.10;;;;;;;;;;5052258;28;20110;-57
2023/06/03 05:36:11;;;;;;;0.52;0.10;;;;;;;;;;5054851;28;20040;-56
2023/06/03 05:38:37;;;;;;;0.35;0.30;;;;;;;;;;5055367;28;20098;-56
2023/06/03 05:41:04;;;;;;;0.85;0.32;;;;;;;;;;5053585;28;20028;-56
2023/06/03 05:43:30;;;;;;;0.32;0.30;;;;;;;;;;5054755;28;20049;-56
2023/06/03 05:45:56;;;;;;;0.85;0.20;;;;;;;;;;5049622;28;20458;-56
2023/06/03 05:48:22;;;;;;;0.22;0.10;;;;;;;;;;5055562;28;20086;-56
2023/06/03 05:50:52;;;;;;;0.63;0.35;;;;;;;;;;5058620;28;20041;-56
2023/06/03 05:53:19;;;;;;;0.20;0.20;;;;;;;;;;5054855;28;20072;-56
2023/06/03 05:55:45;;;;;;;0.17;0.17;;;;;;;;;;5054724;28;20199;-56
2023/06/03 05:58:11;;;;;;;0.75;0.20;;;;;;;;;;5056792;28;20076;-56
2023/06/03 06:00:37;;;;;;;0.40;0.30;;;;;;;;;;5054341;28;20116;-56
2023/06/03 06:03:03;;;;;;;0.28;0.20;;;;;;;;;;5053139;28;20702;-56
2023/06/03 06:05:29;;;;;;;0.38;0.30;;;;;;;;;;5056712;28;20621;-57
2023/06/03 06:07:56;;;;;;;0.47;0.30;;;;;;;;;;5049197;28;20041;-56
2023/06/03 06:10:22;;;;;;;0.93;0.30;;;;;;;;;;5056242;28;20044;-56
2023/06/03 06:12:48;;;;;;;0.47;0.28;;;;;;;;;;5053535;28;20116;-57
2023/06/03 06:15:14;;;;;;;0.28;0.28;;;;;;;;;;5054315;28;20575;-56
2023/06/03 06:17:40;;;;;;;0.30;0.30;;;;;;;;;;5056270;28;20040;-56
2023/06/03 06:20:06;;;;;;;0.28;0.28;;;;;;;;;;5054533;28;20047;-56
2023/06/03 06:22:32;;;;;;;0.30;0.30;;;;;;;;;;5054547;28;20052;-56
2023/06/03 06:24:59;;;;;;;0.35;0.20;;;;;;;;;;5055268;28;20598;-56
2023/06/03 06:27:25;;;;;;;0.13;0.13;;;;;;;;;;5054796;28;20047;-56
2023/06/03 06:29:52;;;;;;;0.32;0.30;;;;;;;;;;5054060;28;20072;-56
2023/06/03 06:32:22;;;;;;;0.40;0.40;;;;;;;;;;5055873;28;20037;-56
2023/06/03 06:34:49;;;;;;;0.10;0.10;;;;;;;;;;5053762;28;20068;-56
2023/06/03 06:37:15;;;;;;;0.30;0.20;;;;;;;;;;5055047;28;20046;-56
2023/06/03 06:39:44;;;;;;;0.40;0.20;;;;;;;;;;5055361;28;20091;-56
2023/06/03 06:42:11;;;;;;;0.20;0.20;;;;;;;;;;5054403;28;20048;-55
2023/06/03 06:44:45;;;;;;;0.43;0.40;;;;;;;;;;5055203;28;20044;-57
2023/06/03 06:47:12;;;;;;;0.10;0.10;;;;;;;;;;5053838;28;20048;-56
2023/06/03 06:49:38;;;;;;;1.00;0.32;;;;;;;;;;5054628;28;20040;-56
2023/06/03 06:52:06;;;;;;;0.60;0.30;;;;;;;;;;5058228;28;20603;-56
2023/06/03 06:54:32;;;;;;;0.35;0.30;;;;;;;;;;5053819;28;20135;-56
2023/06/03 06:56:58;;;;;;;0.40;0.40;;;;;;;;;;5048862;28;20045;-57
2023/06/03 06:59:25;;;;;;;0.10;0.10;;;;;;;;;;5055676;28;20047;-57
2023/06/03 07:01:51;;;;;;;0.63;0.40;;;;;;;;;;5056150;28;20112;-57
2023/06/03 07:04:17;;;;;;;0.73;0.40;;;;;;;;;;5055883;28;20132;-56
2023/06/03 07:06:43;;;;;;;1.23;0.40;;;;;;;;;;5055630;28;20510;-56
2023/06/03 07:09:09;;;;;;;0.50;0.30;;;;;;;;;;5051980;28;20064;-57
2023/06/03 07:11:46;;;;;;;0.30;0.30;;;;;;;;;;5054349;28;20558;-57
2023/06/03 07:14:13;;;;;;;0.25;0.25;;;;;;;;;;5054619;28;20123;-56
2023/06/03 07:16:41;;;;;;;0.77;0.40;;;;;;;;;;5055303;28;20127;-56
2023/06/03 07:19:07;;;;;;;0.38;0.38;;;;;;;;;;5050391;28;20041;-56
2023/06/03 07:21:33;;;;;;;0.40;0.40;;;;;;;;;;5056513;28;20045;-56
2023/06/03 07:24:00;;;;;;;0.20;0.20;;;;;;;;;;5060400;28;20048;-56
2023/06/03 07:26:27;;;;;;;0.28;0.28;;;;;;;;;;5064862;28;20051;-57
2023/06/03 07:28:57;;;;;;;0.38;0.35;;;;;;;;;;5064364;28;20040;-57
2023/06/03 07:31:24;;;;;;;0.40;0.38;;;;;;;;;;5054215;28;20036;-57
2023/06/03 07:33:51;;;;;;;0.20;0.20;;;;;;;;;;5056854;28;20040;-57
2023/06/03 07:36:19;;;;;;;0.20;0.20;;;;;;;;;;5060253;28;20029;-57
2023/06/03 07:39:04;;;;;;;0.60;0.30;;;;;;;;;;5053612;28;20036;-55
2023/06/03 07:41:36;;;;;;;0.35;0.20;;;;;;;;;;5052048;28;20067;-57
2023/06/03 07:44:04;;;;;;;0.60;0.30;;;;;;;;;;5056478;28;20041;-57
2023/06/03 07:46:36;;;;;;;0.20;0.20;;;;;;;;;;5055040;28;20071;-59
2023/06/03 07:49:03;;;;;;;0.10;0.10;;;;;;;;;;5054352;28;20124;-59
2023/06/03 07:51:29;;;;;;;0.17;0.10;;;;;;;;;;5056350;28;20056;-59
2023/06/03 07:53:56;;;;;;;0.22;0.22;;;;;;;;;;5051161;28;20086;-59
2023/06/03 07:56:22;;;;;;;0.20;0.20;;;;;;;;;;5057654;28;20091;-58
2023/06/03 07:58:48;;;;;;;0.38;0.25;;;;;;;;;;5049666;28;20524;-61
2023/06/03 08:01:16;;;;;;;0.60;0.30;;;;;;;;;;5055679;28;20369;-62
2023/06/03 08:03:42;;;;;;;0.10;0.10;;;;;;;;;;5039459;28;20506;-65
2023/06/03 08:06:08;;;;;;;0.20;0.20;;;;;;;;;;5047640;28;20055;-59
2023/06/03 08:08:35;;;;;;;1.05;0.30;;;;;;;;;;5059607;28;20057;-59
2023/06/03 08:11:01;;;;;;;0.43;0.25;;;;;;;;;;5060156;28;20060;-59
2023/06/03 08:13:27;;;;;;;0.30;0.30;;;;;;;;;;5054923;28;20045;-66
2023/06/03 08:15:54;;;;;;;0.32;0.32;;;;;;;;;;5037787;28;20049;-64
2023/06/03 08:18:42;;;;;;;1.08;0.30;;;;;;;;;;5054509;28;20051;-67
2023/06/03 08:21:08;;;;;;;1.38;0.30;;;;;;;;;;5030527;28;20048;-60
2023/06/03 08:23:34;;;;;;;0.60;0.40;;;;;;;;;;5062165;28;20039;-59
2023/06/03 08:26:00;;;;;;;0.85;0.60;;;;;;;;;;5060453;28;20036;-59
2023/06/03 08:28:27;;;;;;;0.98;0.40;;;;;;;;;;5056809;28;20049;-59
2023/06/03 08:30:54;;;;;;;0.30;0.30;;;;;;;;;;5057970;28;20241;-59
2023/06/03 08:33:20;;;;;;;0.45;0.45;;;;;;;;;;5059620;28;20044;-59
2023/06/03 08:35:47;;;;;;;0.52;0.30;;;;;;;;;;5056985;28;20067;-59
2023/06/03 08:38:16;;;;;;;1.10;0.45;;;;;;;;;;5063333;28;20047;-59
2023/06/03 08:40:47;;;;;;;0.43;0.30;;;;;;;;;;5054908;28;20099;-60
2023/06/03 08:43:14;;;;;;;0.30;0.25;;;;;;;;;;5053617;28;20398;-59
2023/06/03 08:45:55;;;;;;;0.40;0.22;;;;;;;;;;5055915;28;20697;-59
2023/06/03 08:48:21;;;;;;;1.60;0.20;;;;;;;;;;5050310;28;20140;-59
2023/06/03 08:50:49;;;;;;;1.20;0.40;;;;;;;;;;5062323;28;20399;-59
2023/06/03 08:53:15;;;;;;;0.52;0.30;;;;;;;;;;5063700;28;20048;-59
2023/06/03 08:55:42;;;;;;;0.30;0.30;;;;;;;;;;5064578;28;20423;-59
2023/06/03 08:58:10;;;;;;;0.28;0.20;;;;;;;;;;5065620;28;20044;-59
2023/06/03 09:00:36;;;;;;;0.45;0.25;;;;;;;;;;5066110;28;20120;-59
2023/06/03 09:03:05;;;;;;;0.70;0.32;;;;;;;;;;5065203;28;20077;-59
2023/06/03 09:05:32;;;;;;;0.50;0.20;;;;;;;;;;5064613;28;20116;-58
2023/06/03 09:07:59;;;;;;;0.73;0.20;;;;;;;;;;5063753;28;20504;-59
2023/06/03 09:10:26;;;;;;;1.38;0.50;;;;;;;;;;5063561;28;20102;-59
2023/06/03 09:12:55;;;;;;;0.40;0.40;;;;;;;;;;5063926;28;20038;-59
2023/06/03 09:15:22;;;;;;;0.17;0.17;;;;;;;;;;5064280;28;20037;-59
2023/06/03 09:17:48;;;;;;;0.22;0.22;;;;;;;;;;5063281;28;20439;-59
2023/06/03 09:20:15;;;;;;;0.28;0.20;;;;;;;;;;5066100;28;20555;-59
2023/06/03 09:22:46;;;;;;;0.43;0.28;;;;;;;;;;5066139;28;20041;-59
2023/06/03 09:25:13;;;;;;;0.20;0.20;;;;;;;;;;5065832;28;20052;-59
2023/06/03 09:27:40;;;;;;;0.50;0.38;;;;;;;;;;5065443;28;20047;-58
2023/06/03 09:30:06;;;;;;;0.40;0.40;;;;;;;;;;5065393;28;20875;-59
2023/06/03 09:32:33;;;;;;;0.52;0.30;;;;;;;;;;5064538;28;20048;-59
2023/06/03 09:35:04;;;;;;;0.32;0.25;;;;;;;;;;5065693;28;20534;-59
2023/06/03 09:37:30;;;;;;;0.50;0.35;;;;;;;;;;5064763;28;20402;-59
2023/06/03 09:39:56;;;;;;;0.40;0.28;;;;;;;;;;5065011;28;20048;-59
2023/06/03 09:42:22;;;;;;;0.30;0.20;;;;;;;;;;5065631;28;20392;-59
2023/06/03 09:44:49;;;;;;;0.40;0.25;;;;;;;;;;5064503;28;20091;-59
2023/06/03 09:47:18;;;;;;;1.00;0.40;;;;;;;;;;5065461;28;20496;-59
2023/06/03 09:50:02;;;;;;;0.93;0.30;;;;;;;;;;5065796;28;20488;-59
2023/06/03 09:52:35;;;;;;;0.30;0.30;;;;;;;;;;5064329;28;20048;-59
2023/06/03 09:55:02;;;;;;;0.50;0.30;;;;;;;;;;5065151;28;20124;-59
2023/06/03 09:57:28;;;;;;;0.30;0.30;;;;;;;;;;5065315;28;20076;-59
2023/06/03 10:00:04;;;;;;;1.05;0.40;;;;;;;;;;5064100;28;20094;-59
2023/06/03 10:02:30;;;;;;;1.55;0.43;;;;;;;;;;5065291;28;20048;-59
2023/06/03 10:04:57;;;;;;;0.63;0.40;;;;;;;;;;5064678;28;20076;-59
2023/06/03 10:07:23;;;;;;;0.50;0.22;;;;;;;;;;5064061;28;20488;-59
2023/06/03 10:09:49;;;;;;;0.50;0.50;;;;;;;;;;5064464;28;20095;-59
2023/06/03 10:12:16;;;;;;;1.20;0.30;;;;;;;;;;5065168;28;20041;-59
2023/06/03 10:14:49;;;;;;;1.05;0.50;;;;;;;;;;5064888;28;20091;-59
2023/06/03 10:17:17;;;;;;;0.35;0.35;;;;;;;;;;5064977;28;20040;-59
2023/06/03 10:19:44;;;;;;;0.85;0.40;;;;;;;;;;5064807;28;20040;-59
2023/06/03 10:22:12;;;;;;;0.40;0.35;;;;;;;;;;5064987;28;20087;-59
2023/06/03 10:24:39;;;;;;;0.22;0.22;;;;;;;;;;5064964;28;20109;-59
2023/06/03 10:27:05;;;;;;;0.57;0.30;;;;;;;;;;5063765;28;20434;-59
2023/06/03 10:29:32;;;;;;;3.00;0.60;;;;;;;;;;5064670;28;20047;-59
2023/06/03 10:32:02;;;;;;;0.20;0.20;;;;;;;;;;5064254;28;20049;-59
2023/06/03 10:34:29;;;;;;;0.52;0.20;;;;;;;;;;5064412;28;20200;-59
2023/06/03 10:36:57;;;;;;;0.20;0.20;;;;;;;;;;5064510;28;20101;-59
2023/06/03 10:39:24;;;;;;;0.75;0.35;;;;;;;;;;5064868;28;20044;-59
2023/06/03 10:41:51;;;;;;;0.82;0.22;;;;;;;;;;5063747;28;20081;-59
2023/06/03 10:44:19;;;;;;;0.40;0.20;;;;;;;;;;5064513;28;20045;-59
2023/06/03 10:47:11;;;;;;;0.80;0.35;;;;;;;;;;5064988;28;20087;-59
2023/06/03 10:49:37;;;;;;;;;;;;;;;;;;5040722;28;20516;-59
2023/06/03 10:52:13;;;;;;;1.70;0.32;;;;;;;;;;5064337;28;19930;-58
2023/06/03 10:54:47;;;;;;;0.57;0.55;;;;;;;;;;5065553;28;20041;-59
2023/06/03 10:57:16;;;;;;;0.20;0.20;;;;;;;;;;5068972;28;20048;-59
2023/06/03 10:59:43;;;;;;;0.50;0.50;;;;;;;;;;5069168;28;20051;-59
2023/06/03 11:02:09;;;;;;;0.40;0.22;;;;;;;;;;5067463;28;20047;-59
2023/06/03 11:04:37;;;;;;;0.38;0.38;;;;;;;;;;5068805;28;20051;-59
2023/06/03 11:07:04;;;;;;;0.55;0.30;;;;;;;;;;5068062;28;20045;-59
2023/06/03 11:09:40;;;;;;;0.60;0.40;;;;;;;;;;5067478;28;20057;-59
2023/06/03 11:12:08;;;;;;;1.13;0.63;;;;;;;;;;5049824;28;20058;-60
2023/06/03 11:14:40;;;;;;;0.40;0.35;;;;;;;;;;5068369;28;20066;-59
2023/06/03 11:17:08;;;;;;;0.60;0.60;;;;;;;;;;5067563;28;20150;-59
2023/06/03 11:19:46;;;;;;;0.57;0.40;;;;;;;;;;5068500;28;20136;-60
2023/06/03 11:22:13;;;;;;;0.65;0.40;;;;;;;;;;5068497;28;20047;-59
2023/06/03 11:24:39;;;;;;;1.02;0.40;;;;;;;;;;5067450;28;20432;-59
2023/06/03 11:27:15;;;;;;;0.40;0.30;;;;;;;;;;5067619;28;20469;-59
2023/06/03 11:29:44;;;;;;;1.67;0.40;;;;;;;;;;5068559;28;20403;-59
2023/06/03 11:32:14;;;;;;;0.88;0.30;;;;;;;;;;5067136;28;20083;-59
2023/06/03 11:34:40;;;;;;;1.30;0.30;;;;;;;;;;5067930;28;20100;-59
2023/06/03 11:37:07;;;;;;;0.43;0.40;;;;;;;;;;5066899;28;20139;-59
2023/06/03 11:39:51;;;;;;;0.60;0.50;;;;;;;;;;5067775;28;20044;-59
2023/06/03 11:42:17;;;;;;;1.38;0.47;;;;;;;;;;5068000;28;20494;-59
2023/06/03 11:44:43;;;;;;;0.60;0.40;;;;;;;;;;5067433;28;20045;-59
2023/06/03 11:47:09;;;;;;;0.57;0.50;;;;;;;;;;5067075;28;20128;-59
2023/06/03 11:49:37;;;;;;;0.40;0.40;;;;;;;;;;5067926;28;20093;-59
2023/06/03 11:52:03;;;;;;;0.52;0.40;;;;;;;;;;5066481;28;20048;-59
2023/06/03 11:54:29;;;;;;;0.38;0.38;;;;;;;;;;5067460;28;20047;-59
2023/06/03 11:56:57;;;;;;;0.40;0.35;;;;;;;;;;5067260;28;20045;-59
2023/06/03 11:59:26;;;;;;;0.32;0.32;;;;;;;;;;5066423;28;20052;-60
2023/06/03 12:02:05;;;;;;;1.02;0.40;;;;;;;;;;5067104;28;20070;-59
2023/06/03 12:04:32;;;;;;;0.32;0.32;;;;;;;;;;5067338;28;20053;-59
2023/06/03 12:06:58;;;;;;;0.20;0.20;;;;;;;;;;5065076;28;20056;-59
2023/06/03 12:09:26;;;;;;;0.65;0.30;;;;;;;;;;5066888;28;20519;-59
2023/06/03 12:11:53;;;;;;;0.30;0.30;;;;;;;;;;5067219;28;20080;-59
2023/06/03 12:14:30;;;;;;;0.70;0.52;;;;;;;;;;5066634;28;20068;-59
2023/06/03 12:16:57;;;;;;;1.38;0.50;;;;;;;;;;5066851;28;20048;-59
2023/06/03 12:19:23;;;;;;;0.60;0.60;;;;;;;;;;5066196;28;20408;-59
2023/06/03 12:21:57;;;;;;;0.73;0.40;;;;;;;;;;5066640;28;20047;-59
2023/06/03 12:24:27;;;;;;;2.15;0.68;;;;;;;;;;5066883;28;20079;-59
2023/06/03 12:26:54;;;;;;;0.90;0.70;;;;;;;;;;5065870;28;20577;-59
2023/06/03 12:29:20;;;;;;;0.50;0.50;;;;;;;;;;5066760;28;20048;-59
2023/06/03 12:31:59;;;;;;;0.57;0.50;;;;;;;;;;5066519;28;20113;-59
2023/06/03 12:34:35;;;;;;;0.85;0.47;;;;;;;;;;5066061;28;20052;-59
2023/06/03 12:37:02;;;;;;;0.30;0.30;;;;;;;;;;5066175;28;20102;-59
2023/06/03 12:39:40;;;;;;;1.02;0.50;;;;;;;;;;5066753;28;20047;-59
2023/06/03 12:42:06;;;;;;;0.47;0.47;;;;;;;;;;5065390;28;20475;-59
2023/06/03 12:44:41;;;;;;;1.15;0.28;;;;;;;;;;5066608;28;20044;-59
2023/06/03 12:47:07;;;;;;;0.30;0.28;;;;;;;;;;5066217;28;20087;-59
2023/06/03 12:49:34;;;;;;;1.50;0.40;;;;;;;;;;5065850;28;20079;-60
2023/06/03 12:52:13;;;;;;;2.67;0.50;;;;;;;;;;5066358;28;20123;-59
2023/06/03 12:54:40;;;;;;;0.50;0.28;;;;;;;;;;5065919;28;20087;-59
2023/06/03 12:57:07;;;;;;;0.60;0.55;;;;;;;;;;5066032;28;20407;-59
2023/06/03 12:59:33;;;;;;;0.50;0.50;;;;;;;;;;5066230;28;20036;-59
2023/06/03 13:02:00;;;;;;;0.90;0.30;;;;;;;;;;5065003;28;20542;-59
2023/06/03 13:04:26;;;;;;;0.30;0.28;;;;;;;;;;5066065;28;20565;-59
2023/06/03 13:06:52;;;;;;;0.52;0.32;;;;;;;;;;5048043;28;20066;-59
2023/06/03 13:09:18;;;;;;;0.73;0.40;;;;;;;;;;5065094;28;20538;-59
2023/06/03 13:11:44;;;;;;;0.93;0.30;;;;;;;;;;5066606;28;20119;-59
2023/06/03 13:14:11;;;;;;;0.73;0.40;;;;;;;;;;5066039;28;20037;-59
2023/06/03 13:16:37;;;;;;;0.47;0.47;;;;;;;;;;5065560;28;20052;-59
2023/06/03 13:19:03;;;;;;;0.40;0.32;;;;;;;;;;5065364;28;20054;-59
2023/06/03 13:21:29;;;;;;;1.25;0.55;;;;;;;;;;5065832;28;20052;-59
2023/06/03 13:23:55;;;;;;;0.95;0.68;;;;;;;;;;5064805;28;20442;-59
2023/06/03 13:26:23;;;;;;;2.70;0.40;;;;;;;;;;5065931;28;20097;-59
2023/06/03 13:28:49;;;;;;;0.70;0.50;;;;;;;;;;5065359;28;20514;-59
2023/06/03 13:31:15;;;;;;;1.05;0.50;;;;;;;;;;5065113;28;20040;-59
2023/06/03 13:33:41;;;;;;;1.02;0.40;;;;;;;;;;5066100;28;20029;-59
2023/06/03 13:36:07;;;;;;;1.67;0.98;;;;;;;;;;5065221;28;20421;-58
2023/06/03 13:38:33;;;;;;;1.00;0.50;;;;;;;;;;5064791;28;20044;-59
2023/06/03 13:40:59;;;;;;;0.43;0.40;;;;;;;;;;5065128;28;20043;-59
2023/06/03 13:43:25;;;;;;;1.88;0.45;;;;;;;;;;5065268;28;20352;-59
2023/06/03 13:45:51;;;;;;;0.43;0.20;;;;;;;;;;5064337;28;20040;-59
2023/06/03 13:48:17;;;;;;;0.50;0.50;;;;;;;;;;5065426;28;20245;-59
2023/06/03 13:50:43;;;;;;;2.50;0.70;;;;;;;;;;5065132;28;20617;-59
2023/06/03 13:53:10;;;;;;;1.10;0.30;;;;;;;;;;5064881;28;20138;-59
2023/06/03 13:55:36;;;;;;;0.38;0.30;;;;;;;;;;5065123;28;20109;-59
2023/06/03 13:58:02;;;;;;;0.20;0.17;;;;;;;;;;5064151;28;20041;-60
2023/06/03 14:00:28;;;;;;;0.77;0.45;;;;;;;;;;5064949;28;20560;-59
2023/06/03 14:02:54;;;;;;;0.70;0.40;;;;;;;;;;5064876;28;20044;-59
2023/06/03 14:05:20;;;;;;;0.43;0.40;;;;;;;;;;5064296;28;20048;-59
2023/06/03 14:07:46;;;;;;;0.40;0.40;;;;;;;;;;5064919;28;20040;-59
2023/06/03 14:10:12;;;;;;;0.55;0.40;;;;;;;;;;5065279;28;20095;-60
2023/06/03 14:12:38;;;;;;;1.52;0.50;;;;;;;;;;5064066;28;20694;-59
2023/06/03 14:15:05;;;;;;;0.30;0.30;;;;;;;;;;5064504;28;20040;-59
2023/06/03 14:17:31;;;;;;;0.68;0.50;;;;;;;;;;5064921;28;20226;-59
2023/06/03 14:19:57;;;;;;;0.50;0.30;;;;;;;;;;5064017;28;20036;-60
2023/06/03 14:22:23;;;;;;;0.35;0.35;;;;;;;;;;5064872;28;20044;-59
2023/06/03 14:24:49;;;;;;;0.35;0.22;;;;;;;;;;5065223;28;20433;-59
2023/06/03 14:27:15;;;;;;;0.20;0.20;;;;;;;;;;5064824;28;20135;-59
2023/06/03 14:29:41;;;;;;;2.08;0.50;;;;;;;;;;5064553;28;20040;-59
2023/06/03 14:32:07;;;;;;;1.58;0.30;;;;;;;;;;5064462;28;20412;-59
2023/06/03 14:34:34;;;;;;;0.40;0.40;;;;;;;;;;5064127;28;20037;-59
2023/06/03 14:37:00;;;;;;;1.30;0.40;;;;;;;;;;5064613;28;20522;-59
2023/06/03 14:39:26;;;;;;;0.40;0.40;;;;;;;;;;5064701;28;20174;-59
2023/06/03 14:41:52;;;;;;;0.30;0.30;;;;;;;;;;5064046;28;20388;-61
2023/06/03 14:44:17;;;;;;;0.65;0.50;;;;;;;;;;5064498;28;20170;-59
2023/06/03 14:46:43;;;;;;;1.05;0.40;;;;;;;;;;5065186;28;20070;-59